Time;durP1;ratioP1;P1;durP2;ratioP2;P2;SDS_P1;SDS_P2;PMS_P1;PMS_P2;Temp;Humidity;BMP_temperature;BMP_pressure;BME280_temperature;BME280_humidity;BME280_pressure;Samples;Min_cycle;Max_cycle;Signal;HPM_P1;HPM_P2
2022/07/11 00:02:19;;;;;;;4.50;1.23;;;487.20;870.40;;;;;;5032782;28;20045;-73
2022/07/11 00:04:46;;;;;;;4.40;1.83;;;512.00;870.40;;;;;;5028141;28;20036;-74
2022/07/11 00:07:12;;;;;;;4.30;1.48;;;512.00;844.80;;;;;;5035682;28;20039;-74
2022/07/11 00:09:38;;;;;;;4.05;1.65;;;487.30;844.80;;;;;;5032520;28;20124;-74
2022/07/11 00:12:05;;;;;;;5.50;1.63;;;487.30;844.80;;;;;;5039513;28;20028;-74
2022/07/11 00:14:31;;;;;;;5.10;2.80;;;487.20;844.80;;;;;;5015826;28;20037;-73
2022/07/11 00:16:57;;;;;;;5.63;2.00;;;487.20;819.20;;;;;;5023495;28;20030;-75
2022/07/11 00:19:23;;;;;;;2.83;1.35;;;487.20;819.20;;;;;;5034060;28;20493;-72
2022/07/11 00:21:50;;;;;;;6.88;2.10;;;487.20;793.60;;;;;;5038009;28;20065;-75
2022/07/11 00:24:19;;;;;;;3.35;2.15;;;487.20;793.60;;;;;;5034482;28;20392;-72
2022/07/11 00:26:48;;;;;;;5.43;1.50;;;487.20;768.00;;;;;;5032995;28;20060;-74
2022/07/11 00:29:15;;;;;;;4.38;1.63;;;487.20;742.40;;;;;;5032223;28;20116;-74
2022/07/11 00:31:40;;;;;;;4.68;1.13;;;487.20;768.00;;;;;;5027998;28;20037;-74
2022/07/11 00:34:06;;;;;;;1.38;0.88;;;487.20;768.00;;;;;;5030020;28;20389;-74
2022/07/11 00:36:32;;;;;;;2.33;1.45;;;487.10;742.40;;;;;;5030615;28;20021;-74
2022/07/11 00:38:59;;;;;;;2.70;1.10;;;487.10;768.00;;;;;;5029854;28;20502;-73
2022/07/11 00:41:24;;;;;;;2.17;0.98;;;487.20;742.40;;;;;;5046353;28;20405;-74
2022/07/11 00:43:53;;;;;;;3.90;1.50;;;487.00;768.00;;;;;;5032462;28;20029;-74
2022/07/11 00:46:20;;;;;;;3.10;1.30;;;487.10;742.40;;;;;;5032528;28;20111;-75
2022/07/11 00:48:46;;;;;;;1.73;1.17;;;487.10;716.80;;;;;;5031844;28;20030;-75
2022/07/11 00:51:12;;;;;;;2.83;1.17;;;487.10;716.80;;;;;;5031611;28;20025;-75
2022/07/11 00:53:40;;;;;;;1.75;1.33;;;487.10;716.80;;;;;;5030203;28;20512;-74
2022/07/11 00:56:07;;;;;;;1.00;0.80;;;487.00;716.80;;;;;;5029911;28;20033;-74
2022/07/11 00:58:33;;;;;;;4.75;1.52;;;486.90;742.40;;;;;;5027504;28;20040;-74
2022/07/11 01:00:59;;;;;;;5.82;1.30;;;487.00;716.80;;;;;;5032864;28;20067;-74
2022/07/11 01:03:25;;;;;;;3.58;1.05;;;487.00;716.80;;;;;;5030056;28;20036;-74
2022/07/11 01:05:51;;;;;;;4.63;1.00;;;487.00;716.80;;;;;;5032547;28;20025;-72
2022/07/11 01:08:16;;;;;;;9.30;1.40;;;487.00;691.20;;;;;;5032220;28;20073;-71
2022/07/11 01:10:43;;;;;;;4.07;2.00;;;487.00;716.80;;;;;;5035582;28;20025;-71
2022/07/11 01:13:08;;;;;;;3.17;1.20;;;486.80;716.80;;;;;;5032941;28;20037;-73
2022/07/11 01:15:35;;;;;;;3.80;1.42;;;486.80;716.80;;;;;;5033297;28;20076;-75
2022/07/11 01:18:04;;;;;;;2.42;1.23;;;486.80;716.80;;;;;;5031918;28;20392;-74
2022/07/11 01:20:30;;;;;;;2.00;1.10;;;;;;;;;;5032644;28;20025;-76
2022/07/11 01:23:16;;;;;;;1.45;0.90;;;486.80;691.20;;;;;;5031134;28;20092;-76
2022/07/11 01:25:42;;;;;;;3.92;1.48;;;486.70;691.20;;;;;;5025976;28;20028;-75
2022/07/11 01:28:08;;;;;;;5.40;1.95;;;486.70;691.20;;;;;;5031467;28;20075;-76
2022/07/11 01:30:34;;;;;;;14.68;2.92;;;486.70;691.20;;;;;;5033538;28;20080;-74
2022/07/11 01:33:00;;;;;;;4.47;1.60;;;486.60;691.20;;;;;;5029698;28;20029;-75
2022/07/11 01:35:26;;;;;;;3.92;1.27;;;486.70;691.20;;;;;;5032317;28;20037;-75
2022/07/11 01:37:52;;;;;;;4.15;1.85;;;486.50;691.20;;;;;;5030148;28;20030;-74
2022/07/11 01:40:18;;;;;;;4.50;1.20;;;486.40;742.40;;;;;;5030231;28;20039;-76
2022/07/11 01:42:44;;;;;;;2.53;1.33;;;486.40;716.80;;;;;;5031271;28;20910;-75
2022/07/11 01:45:11;;;;;;;2.78;1.30;;;461.60;742.40;;;;;;5039122;28;20579;-75
2022/07/11 01:47:37;;;;;;;2.08;1.30;;;461.60;742.40;;;;;;5035243;28;20025;-75
2022/07/11 01:50:04;;;;;;;4.40;1.63;;;461.50;768.00;;;;;;5031752;28;20028;-75
2022/07/11 01:52:30;;;;;;;4.90;1.30;;;461.50;768.00;;;;;;5028646;28;20025;-76
2022/07/11 01:54:55;;;;;;;4.45;1.33;;;461.40;768.00;;;;;;5031062;28;20144;-75
2022/07/11 01:57:21;;;;;;;3.80;1.48;;;461.30;793.60;;;;;;5030125;28;20028;-74
2022/07/11 01:59:47;;;;;;;3.38;1.10;;;461.40;768.00;;;;;;5031565;28;20396;-75
2022/07/11 02:02:13;;;;;;;1.75;1.10;;;461.40;793.60;;;;;;5031852;28;20041;-74
2022/07/11 02:04:39;;;;;;;1.83;1.10;;;461.40;793.60;;;;;;5031723;28;20030;-75
2022/07/11 02:07:05;;;;;;;3.92;1.33;;;461.20;793.60;;;;;;5031806;28;20917;-74
2022/07/11 02:09:31;;;;;;;2.80;1.45;;;461.10;844.80;;;;;;5031904;28;20478;-75
2022/07/11 02:11:56;;;;;;;6.35;1.60;;;460.90;844.80;;;;;;5030269;28;20388;-74
2022/07/11 02:14:22;;;;;;;2.78;1.50;;;461.10;819.20;;;;;;5031246;28;20036;-75
2022/07/11 02:16:48;;;;;;;2.97;1.10;;;460.90;844.80;;;;;;5030382;28;20045;-76
2022/07/11 02:19:14;;;;;;;5.80;1.33;;;460.80;844.80;;;;;;5030651;28;20117;-75
2022/07/11 02:21:40;;;;;;;2.67;1.63;;;460.80;844.80;;;;;;5032171;28;20100;-75
2022/07/11 02:24:05;;;;;;;2.08;1.25;;;436.10;819.20;;;;;;5038482;28;20420;-74
2022/07/11 02:26:31;;;;;;;3.08;1.40;;;436.10;844.80;;;;;;5031955;28;20034;-74
2022/07/11 02:28:57;;;;;;;3.72;2.08;;;460.80;870.40;;;;;;5030847;28;20026;-74
2022/07/11 02:31:23;;;;;;;4.20;1.33;;;435.90;870.40;;;;;;5034244;28;20033;-74
2022/07/11 02:33:49;;;;;;;6.60;2.08;;;435.80;896.00;;;;;;5030060;28;20025;-75
2022/07/11 02:36:14;;;;;;;4.78;1.15;;;435.70;921.60;;;;;;5034200;28;20082;-74
2022/07/11 02:38:42;;;;;;;4.75;1.80;;;435.70;921.60;;;;;;5032984;28;20045;-74
2022/07/11 02:41:07;;;;;;;4.28;1.65;;;435.70;921.60;;;;;;5034535;28;20147;-75
2022/07/11 02:43:34;;;;;;;2.50;1.42;;;435.60;921.60;;;;;;5037691;28;20140;-75
2022/07/11 02:46:00;;;;;;;2.45;1.40;;;435.50;921.60;;;;;;5038250;28;20370;-74
2022/07/11 02:48:25;;;;;;;2.35;1.23;;;435.40;947.20;;;;;;5035300;28;20534;-75
2022/07/11 02:50:51;;;;;;;4.70;1.80;;;435.30;947.20;;;;;;5034986;28;20025;-75
2022/07/11 02:53:17;;;;;;;5.28;1.33;;;435.30;947.20;;;;;;5034611;28;20037;-75
2022/07/11 02:55:42;;;;;;;3.85;1.45;;;435.20;998.40;;;;;;5035563;28;20488;-75
2022/07/11 02:58:08;;;;;;;3.40;1.27;;;410.40;998.40;;;;;;5033421;28;20401;-75
2022/07/11 03:00:34;;;;;;;4.30;1.90;;;410.40;998.40;;;;;;5037473;28;20026;-75
2022/07/11 03:03:00;;;;;;;7.55;1.90;;;410.30;998.40;;;;;;5035056;28;20029;-76
2022/07/11 03:05:25;;;;;;;2.35;1.50;;;410.40;998.40;;;;;;5035498;28;20030;-75
2022/07/11 03:07:51;;;;;;;3.97;1.38;;;410.40;998.40;;;;;;5035169;28;20041;-74
2022/07/11 03:10:17;;;;;;;2.38;1.63;;;410.40;1024.00;;;;;;5018945;28;20056;-75
2022/07/11 03:12:43;;;;;;;3.45;1.80;;;410.40;998.40;;;;;;5038198;28;20032;-75
2022/07/11 03:15:09;;;;;;;2.45;1.27;;;410.40;1024.00;;;;;;5034788;28;20033;-74
2022/07/11 03:17:35;;;;;;;3.90;1.50;;;410.40;1024.00;;;;;;5035068;28;20026;-74
2022/07/11 03:20:02;;;;;;;6.78;3.45;;;410.40;1024.00;;;;;;5034524;28;20428;-74
2022/07/11 03:22:28;;;;;;;3.55;1.55;;;410.30;1049.60;;;;;;5034169;28;20037;-74
2022/07/11 03:24:54;;;;;;;3.85;1.73;;;410.30;1049.60;;;;;;5028058;28;20075;-74
2022/07/11 03:27:20;;;;;;;5.22;1.73;;;410.40;1049.60;;;;;;5034737;28;20087;-74
2022/07/11 03:29:46;;;;;;;3.85;1.60;;;410.40;1049.60;;;;;;5033298;28;20026;-74
2022/07/11 03:32:12;;;;;;;7.00;2.70;;;410.40;1024.00;;;;;;5034328;28;20036;-74
2022/07/11 03:34:38;;;;;;;6.25;2.03;;;410.40;1024.00;;;;;;5034557;28;20353;-74
2022/07/11 03:37:04;;;;;;;6.35;2.65;;;410.10;1075.20;;;;;;5033999;28;20025;-74
2022/07/11 03:39:30;;;;;;;11.82;2.65;;;;;;;;;;5025602;28;20113;-73
2022/07/11 03:41:56;;;;;;;4.20;1.52;;;;;;;;;;5043444;28;20485;-74
2022/07/11 03:44:22;;;;;;;4.72;1.73;;;;;;;;;;5034508;28;20087;-74
2022/07/11 03:46:48;;;;;;;3.22;1.70;;;;;;;;;;5033942;28;20021;-74
2022/07/11 03:49:14;;;;;;;6.03;2.17;;;;;;;;;;5034053;28;20021;-74
2022/07/11 03:51:40;;;;;;;3.70;2.08;;;;;;;;;;5033948;28;20040;-76
2022/07/11 03:54:06;;;;;;;4.53;1.88;;;;;;;;;;5034720;28;20039;-76
2022/07/11 03:56:32;;;;;;;3.88;1.95;;;410.10;1100.80;;;;;;5028896;28;20525;-75
2022/07/11 03:58:58;;;;;;;2.70;1.88;;;409.90;1126.40;;;;;;5035956;28;20151;-77
2022/07/11 04:01:23;;;;;;;5.47;2.17;;;409.80;1126.40;;;;;;5035600;28;20400;-73
2022/07/11 04:03:49;;;;;;;4.10;2.03;;;409.90;1100.80;;;;;;5030817;28;20361;-74
2022/07/11 04:06:15;;;;;;;3.53;1.70;;;410.00;1100.80;;;;;;5033733;28;20037;-75
2022/07/11 04:08:41;;;;;;;3.88;1.83;;;410.00;1100.80;;;;;;5032373;28;20042;-76
2022/07/11 04:11:08;;;;;;;3.08;1.63;;;410.20;1075.20;;;;;;5032961;28;20060;-75
2022/07/11 04:13:34;;;;;;;3.35;1.42;;;410.30;1075.20;;;;;;5031713;28;20014;-76
2022/07/11 04:16:00;;;;;;;3.53;1.95;;;410.30;1075.20;;;;;;5032096;28;20036;-76
2022/07/11 04:18:27;;;;;;;5.32;1.70;;;410.40;1100.80;;;;;;5031296;28;20087;-75
2022/07/11 04:20:52;;;;;;;3.72;2.13;;;435.20;1075.20;;;;;;5031755;28;20040;-76
2022/07/11 04:23:18;;;;;;;4.88;2.00;;;410.50;1075.20;;;;;;5033159;28;20018;-76
2022/07/11 04:25:44;;;;;;;9.32;2.53;;;435.20;1075.20;;;;;;5033070;28;20417;-75
2022/07/11 04:28:10;;;;;;;6.30;1.70;;;435.30;1049.60;;;;;;5033184;28;20524;-76
2022/07/11 04:30:36;;;;;;;3.58;1.60;;;435.20;1049.60;;;;;;5033367;28;20018;-75
2022/07/11 04:33:01;;;;;;;6.57;2.55;;;435.20;1075.20;;;;;;5031779;28;20700;-75
2022/07/11 04:35:27;;;;;;;4.32;2.90;;;435.30;1075.20;;;;;;5031091;28;20073;-76
2022/07/11 04:37:54;;;;;;;3.10;1.70;;;435.30;1075.20;;;;;;5028681;28;20030;-75
2022/07/11 04:40:23;;;;;;;3.90;1.80;;;435.30;1024.00;;;;;;5033034;28;20041;-74
2022/07/11 04:42:49;;;;;;;4.28;1.90;;;435.30;1024.00;;;;;;5031360;28;20044;-75
2022/07/11 04:45:15;;;;;;;3.03;1.67;;;435.30;1049.60;;;;;;5031551;28;20071;-76
2022/07/11 04:47:41;;;;;;;6.60;2.17;;;435.50;1024.00;;;;;;5030663;28;20017;-76
2022/07/11 04:50:08;;;;;;;2.90;1.40;;;435.60;998.40;;;;;;5032421;28;20461;-75
2022/07/11 04:52:34;;;;;;;2.35;1.50;;;435.50;1024.00;;;;;;5032296;28;20029;-75
2022/07/11 04:54:59;;;;;;;4.45;1.58;;;435.50;1024.00;;;;;;5032699;28;20354;-75
2022/07/11 04:57:26;;;;;;;3.28;1.30;;;435.60;972.80;;;;;;5032237;28;20021;-76
2022/07/11 04:59:52;;;;;;;2.13;1.70;;;435.70;972.80;;;;;;5032447;28;20018;-75
2022/07/11 05:02:18;;;;;;;1.80;1.20;;;435.90;896.00;;;;;;5032308;28;20045;-75
2022/07/11 05:04:45;;;;;;;2.45;1.05;;;435.90;870.40;;;;;;5031480;28;20028;-76
2022/07/11 05:07:12;;;;;;;1.92;1.20;;;436.00;870.40;;;;;;5032256;28;20030;-76
2022/07/11 05:09:39;;;;;;;1.73;1.10;;;435.90;870.40;;;;;;5032059;28;20125;-75
2022/07/11 05:12:06;;;;;;;2.13;1.10;;;435.90;870.40;;;;;;5032377;28;20056;-75
2022/07/11 05:14:32;;;;;;;2.97;1.65;;;435.90;870.40;;;;;;5032265;28;20036;-76
2022/07/11 05:16:57;;;;;;;5.93;2.20;;;436.00;870.40;;;;;;5027017;28;20104;-75
2022/07/11 05:19:23;;;;;;;3.95;1.35;;;460.80;896.00;;;;;;5029592;28;20472;-76
2022/07/11 05:21:49;;;;;;;5.50;1.60;;;436.10;870.40;;;;;;5031675;28;20494;-75
2022/07/11 05:24:14;;;;;;;3.20;1.40;;;460.80;870.40;;;;;;5031866;28;20025;-76
2022/07/11 05:26:41;;;;;;;5.18;3.05;;;436.10;870.40;;;;;;5028332;28;20021;-75
2022/07/11 05:29:07;;;;;;;5.93;2.05;;;460.90;870.40;;;;;;5031267;28;20028;-75
2022/07/11 05:31:33;;;;;;;1.92;0.93;;;461.10;844.80;;;;;;5031860;28;20030;-75
2022/07/11 05:33:58;;;;;;;2.45;1.15;;;461.10;793.60;;;;;;5031364;28;20112;-76
2022/07/11 05:36:24;;;;;;;1.23;0.93;;;461.10;819.20;;;;;;5031143;28;20032;-75
2022/07/11 05:38:50;;;;;;;11.68;1.40;;;461.10;819.20;;;;;;5030070;28;20029;-76
2022/07/11 05:41:15;;;;;;;2.25;1.50;;;461.10;844.80;;;;;;5031909;28;20507;-75
2022/07/11 05:43:41;;;;;;;2.28;1.45;;;461.00;844.80;;;;;;5031288;28;20091;-74
2022/07/11 05:46:07;;;;;;;4.25;2.10;;;461.10;844.80;;;;;;5031876;28;20461;-74
2022/07/11 05:48:33;;;;;;;4.32;1.58;;;461.10;819.20;;;;;;5020520;28;20022;-74
2022/07/11 05:50:58;;;;;;;4.43;2.08;;;461.20;819.20;;;;;;5027704;28;20032;-73
2022/07/11 05:53:24;;;;;;;5.18;1.75;;;461.10;819.20;;;;;;5023072;28;20032;-74
2022/07/11 05:55:50;;;;;;;8.27;2.83;;;461.20;819.20;;;;;;5026830;28;20021;-74
2022/07/11 05:58:15;;;;;;;4.63;2.58;;;461.30;793.60;;;;;;5029656;28;20389;-74
2022/07/11 06:00:41;;;;;;;5.18;2.53;;;461.30;793.60;;;;;;5025630;28;20400;-76
2022/07/11 06:03:07;;;;;;;4.68;1.90;;;461.50;793.60;;;;;;5055423;28;20029;-74
2022/07/11 06:05:32;;;;;;;4.80;3.67;;;461.30;793.60;;;;;;5029154;28;20028;-74
2022/07/11 06:10:42;;;;;;;4.07;1.92;;;461.40;768.00;;;;;;5027119;28;20028;-73
2022/07/11 06:13:08;;;;;;;3.25;1.30;;;461.40;768.00;;;;;;5031209;28;20033;-72
2022/07/11 06:15:34;;;;;;;12.57;2.22;;;461.30;768.00;;;;;;5029535;28;20021;-74
2022/07/11 06:17:59;;;;;;;5.90;2.42;;;461.50;768.00;;;;;;5028348;28;20032;-72
2022/07/11 06:20:25;;;;;;;4.05;1.42;;;461.50;768.00;;;;;;5029385;28;20036;-75
2022/07/11 06:22:53;;;;;;;1.60;0.98;;;461.50;742.40;;;;;;5031753;28;20119;-74
2022/07/11 06:25:19;;;;;;;3.03;1.30;;;461.50;742.40;;;;;;5031297;28;20480;-73
2022/07/11 06:27:44;;;;;;;9.77;3.53;;;461.60;742.40;;;;;;5029570;28;20029;-74
2022/07/11 06:30:10;;;;;;;2.55;1.38;;;461.70;716.80;;;;;;5029913;28;20480;-73
2022/07/11 06:32:36;;;;;;;8.98;1.92;;;461.40;716.80;;;;;;5030196;28;20029;-73
2022/07/11 06:35:02;;;;;;;4.45;1.90;;;461.70;716.80;;;;;;5029152;28;20033;-75
2022/07/11 06:37:27;;;;;;;5.75;3.63;;;461.60;716.80;;;;;;5026566;28;20028;-75
2022/07/11 06:39:53;;;;;;;3.55;1.30;;;486.40;742.40;;;;;;5031174;28;20097;-75
2022/07/11 06:42:19;;;;;;;2.85;1.70;;;;;;;;;;5030610;28;20042;-75
2022/07/11 06:44:45;;;;;;;2.40;1.15;;;486.80;716.80;;;;;;5030695;28;20029;-75
2022/07/11 06:47:10;;;;;;;5.63;3.85;;;486.60;742.40;;;;;;5028064;28;20028;-73
2022/07/11 06:49:36;;;;;;;2.45;1.60;;;486.70;716.80;;;;;;5029242;28;20116;-75
2022/07/11 06:52:02;;;;;;;5.30;2.13;;;486.70;716.80;;;;;;5030366;28;20108;-74
2022/07/11 06:54:28;;;;;;;1.80;1.23;;;486.60;716.80;;;;;;5030197;28;20531;-75
2022/07/11 06:56:53;;;;;;;3.00;1.45;;;486.50;742.40;;;;;;5031000;28;20029;-75
2022/07/11 06:59:19;;;;;;;2.42;1.50;;;486.50;742.40;;;;;;5030956;28;20061;-74
2022/07/11 07:01:45;;;;;;;14.18;1.85;;;486.60;716.80;;;;;;5026217;28;20038;-75
2022/07/11 07:04:10;;;;;;;3.08;1.38;;;486.50;716.80;;;;;;5029874;28;20034;-74
2022/07/11 07:06:36;;;;;;;6.78;2.38;;;486.70;716.80;;;;;;5030284;28;20025;-73
2022/07/11 07:09:03;;;;;;;7.20;2.25;;;;;;;;;;5027220;28;20045;-74
2022/07/11 07:11:28;;;;;;;2.95;1.88;;;486.70;691.20;;;;;;5030846;28;20100;-73
2022/07/11 07:13:54;;;;;;;4.50;1.35;;;486.60;691.20;;;;;;5030927;28;20113;-74
2022/07/11 07:16:20;;;;;;;6.15;2.33;;;486.70;665.60;;;;;;5030551;28;20164;-74
2022/07/11 07:18:46;;;;;;;7.13;3.67;;;486.90;665.60;;;;;;5023139;28;20030;-74
2022/07/11 07:21:12;;;;;;;3.97;2.08;;;486.90;665.60;;;;;;5031671;28;20109;-75
2022/07/11 07:23:38;;;;;;;4.13;1.25;;;486.90;665.60;;;;;;5029546;28;20071;-72
2022/07/11 07:26:04;;;;;;;1.48;1.08;;;486.80;665.60;;;;;;5029555;28;20117;-71
2022/07/11 07:28:31;;;;;;;7.22;1.73;;;486.70;665.60;;;;;;5034730;28;20076;-71
2022/07/11 07:30:57;;;;;;;2.88;1.33;;;486.50;691.20;;;;;;5033800;28;20392;-72
2022/07/11 07:33:22;;;;;;;3.25;2.55;;;486.70;691.20;;;;;;5031954;28;20121;-70
2022/07/11 07:35:48;;;;;;;9.40;1.70;;;487.00;665.60;;;;;;5033586;28;20097;-71
2022/07/11 07:38:14;;;;;;;4.57;1.80;;;486.80;640.00;;;;;;5033630;28;20021;-71
2022/07/11 07:40:39;;;;;;;2.92;2.38;;;487.00;640.00;;;;;;5032611;28;20488;-72
2022/07/11 07:43:06;;;;;;;2.00;1.15;;;487.00;614.40;;;;;;5033503;28;20372;-72
2022/07/11 07:45:32;;;;;;;5.13;1.50;;;487.20;588.80;;;;;;5035488;28;20025;-72
2022/07/11 07:47:58;;;;;;;1.70;0.90;;;512.00;614.40;;;;;;5032697;28;20032;-72
2022/07/11 07:50:24;;;;;;;3.70;1.60;;;487.20;563.20;;;;;;5033576;28;20030;-72
2022/07/11 07:52:50;;;;;;;3.97;1.83;;;;;;;;;;5020437;28;20459;-73
2022/07/11 07:55:16;;;;;;;1.65;0.85;;;512.00;563.20;;;;;;5039196;28;20353;-72
2022/07/11 07:57:42;;;;;;;7.95;1.65;;;487.10;537.60;;;;;;5032297;28;20022;-73
2022/07/11 08:02:53;;;;;;;3.67;2.05;;;487.30;537.60;;;;;;5032176;28;20044;-74
2022/07/11 08:05:19;;;;;;;2.28;1.27;;;487.20;512.00;;;;;;5033149;28;20029;-71
2022/07/11 08:07:44;;;;;;;2.80;1.30;;;512.10;486.40;;;;;;5032606;28;20122;-70
2022/07/11 08:10:11;;;;;;;3.35;2.00;;;512.30;409.60;;;;;;5033387;28;20455;-70
2022/07/11 08:12:36;;;;;;;2.88;1.45;;;512.30;460.80;;;;;;5033221;28;20026;-71
2022/07/11 08:15:02;;;;;;;3.67;1.35;;;512.00;435.20;;;;;;5028057;28;20052;-70
2022/07/11 08:17:29;;;;;;;5.53;1.60;;;487.20;486.40;;;;;;5030972;28;20043;-71
2022/07/11 08:19:55;;;;;;;2.53;1.10;;;487.30;409.60;;;;;;5031902;28;20025;-71
2022/07/11 08:22:20;;;;;;;2.22;1.25;;;487.00;460.80;;;;;;5030886;28;20037;-71
2022/07/11 08:24:46;;;;;;;6.03;2.58;;;487.20;435.20;;;;;;5030868;28;20059;-71
2022/07/11 08:27:12;;;;;;;9.10;1.40;;;512.00;435.20;;;;;;5032635;28;20021;-71
2022/07/11 08:29:38;;;;;;;4.60;1.23;;;512.00;409.60;;;;;;5031860;28;20342;-77
2022/07/11 08:32:04;;;;;;;2.03;0.80;;;512.30;409.60;;;;;;5028979;28;20120;-74
2022/07/11 08:34:29;;;;;;;4.57;1.90;;;487.30;435.20;;;;;;5038218;28;20075;-75
2022/07/11 08:36:55;;;;;;;3.83;1.70;;;512.00;409.60;;;;;;5030652;28;20026;-77
2022/07/11 08:39:21;;;;;;;3.25;2.08;;;512.20;435.20;;;;;;5021245;28;20507;-76
2022/07/11 08:41:46;;;;;;;2.83;1.20;;;512.20;409.60;;;;;;5034357;28;20095;-78
2022/07/11 08:44:12;;;;;;;3.83;2.38;;;512.30;384.00;;;;;;5031979;28;20044;-78
2022/07/11 08:46:43;;;;;;;2.90;1.25;;;512.10;409.60;;;;;;5033350;28;20362;-75
2022/07/11 08:49:12;;;;;;;10.90;3.63;;;512.00;435.20;;;;;;5031994;28;20036;-75
2022/07/11 08:51:38;;;;;;;3.35;1.52;;;512.10;435.20;;;;;;5027888;28;20018;-75
2022/07/11 08:54:04;;;;;;;2.42;1.15;;;487.30;435.20;;;;;;5031776;28;20109;-77
2022/07/11 08:56:31;;;;;;;3.80;1.48;;;512.30;409.60;;;;;;5032596;28;20452;-79
2022/07/11 08:59:00;;;;;;;3.58;1.00;;;512.40;409.60;;;;;;5030417;28;20029;-76
2022/07/11 09:01:29;;;;;;;1.80;1.27;;;512.20;384.00;;;;;;5027997;28;20040;-75
2022/07/11 09:03:56;;;;;;;5.53;1.80;;;512.20;384.00;;;;;;5030394;28;20389;-75
2022/07/11 09:06:22;;;;;;;5.07;1.50;;;512.50;384.00;;;;;;5031218;28;20465;-76
2022/07/11 09:08:47;;;;;;;2.15;1.08;;;512.40;384.00;;;;;;5030304;28;20048;-77
2022/07/11 09:11:13;;;;;;;5.20;1.75;;;512.40;384.00;;;;;;5031020;28;20036;-76
2022/07/11 09:13:39;;;;;;;2.00;1.10;;;512.30;332.80;;;;;;5028340;28;20384;-76
2022/07/11 09:16:06;;;;;;;2.78;1.17;;;512.30;332.80;;;;;;5020437;28;20362;-76
2022/07/11 09:18:35;;;;;;;2.70;1.40;;;512.40;307.20;;;;;;5029238;28;20040;-77
2022/07/11 09:26:50;;;;;;;3.88;1.48;;;512.50;307.20;;;;;;5029965;28;20101;-75
2022/07/11 09:29:20;;;;;;;4.68;1.85;;;512.80;307.20;;;;;;5030633;28;20022;-77
2022/07/11 09:31:47;;;;;;;2.75;2.15;;;537.70;332.80;;;;;;5027101;28;20112;-77
2022/07/11 09:34:14;;;;;;;2.67;1.10;;;537.90;281.60;;;;;;5021212;28;20106;-75
2022/07/11 09:36:41;;;;;;;1.70;1.10;;;;;;;;;;5031231;28;20057;-76
2022/07/11 09:39:10;;;;;;;2.05;0.95;;;537.70;332.80;;;;;;5026418;28;20067;-77
2022/07/11 09:41:37;;;;;;;2.85;1.00;;;537.80;307.20;;;;;;5022752;28;20033;-76
2022/07/11 09:44:33;;;;;;;2.65;1.38;;;512.90;307.20;;;;;;5028116;28;20622;-77
2022/07/11 09:46:59;;;;;;;2.75;1.23;;;512.90;307.20;;;;;;5026975;28;20120;-75
2022/07/11 09:49:39;;;;;;;5.60;1.25;;;512.50;332.80;;;;;;5023053;28;20475;-78
2022/07/11 09:52:13;;;;;;;6.55;1.85;;;512.90;307.20;;;;;;5028120;28;20040;-76
2022/07/11 09:54:57;;;;;;;4.30;2.05;;;537.70;332.80;;;;;;5031121;28;20032;-75
2022/07/11 09:57:36;;;;;;;2.47;1.00;;;537.60;307.20;;;;;;5029718;28;20029;-77
2022/07/11 10:00:08;;;;;;;8.55;1.55;;;537.70;307.20;;;;;;5029765;28;20152;-77
2022/07/11 10:02:35;;;;;;;4.32;1.08;;;537.90;281.60;;;;;;5025825;28;20041;-76
2022/07/11 10:05:02;;;;;;;4.57;1.80;;;538.00;281.60;;;;;;5030475;28;20465;-75
2022/07/11 10:07:28;;;;;;;4.90;1.25;;;538.40;281.60;;;;;;5030844;28;20040;-76
2022/07/11 10:09:55;;;;;;;2.53;1.30;;;538.20;307.20;;;;;;5029986;28;20152;-77
2022/07/11 10:12:22;;;;;;;1.55;0.80;;;537.70;332.80;;;;;;5031714;28;20480;-78
2022/07/11 10:14:49;;;;;;;1.15;0.63;;;537.90;332.80;;;;;;5029375;28;20024;-76
2022/07/11 10:17:39;;;;;;;3.90;1.33;;;538.30;332.80;;;;;;5031271;28;20025;-75
2022/07/11 10:20:12;;;;;;;3.97;2.13;;;;;;;;;;5029700;28;20522;-79
2022/07/11 10:22:47;;;;;;;5.80;4.07;;;537.90;307.20;;;;;;5028621;28;20037;-74
2022/07/11 10:25:39;;;;;;;6.82;1.58;;;538.40;307.20;;;;;;5029320;28;20033;-74
2022/07/11 10:28:12;;;;;;;2.53;1.20;;;538.40;281.60;;;;;;5025668;28;20041;-73
2022/07/11 10:30:55;;;;;;;2.60;1.70;;;537.90;281.60;;;;;;5026708;28;20018;-75
2022/07/11 10:33:21;;;;;;;3.60;1.60;;;537.90;281.60;;;;;;5030291;28;20064;-76
2022/07/11 10:35:51;;;;;;;4.32;1.48;;;538.00;256.00;;;;;;5029005;28;20041;-73
2022/07/11 10:38:17;;;;;;;2.30;1.13;;;538.40;230.40;;;;;;5027881;28;20105;-76
2022/07/11 10:40:46;;;;;;;5.72;1.90;;;538.40;230.40;;;;;;5028807;28;20032;-73
2022/07/11 10:43:13;;;;;;;4.57;2.05;;;563.20;281.60;;;;;;5029848;28;20104;-71
2022/07/11 10:46:18;;;;;;;4.10;1.70;;;563.30;307.20;;;;;;5025298;28;20034;-78
2022/07/11 10:49:14;;;;;;;3.22;1.27;;;538.40;307.20;;;;;;5023263;28;20551;-78
2022/07/11 10:51:49;;;;;;;2.40;1.30;;;538.30;307.20;;;;;;5026893;28;20037;-78
2022/07/11 10:54:51;;;;;;;2.53;1.20;;;563.30;307.20;;;;;;5030308;28;20074;-75
2022/07/11 10:57:41;;;;;;;3.10;1.02;;;538.20;281.60;;;;;;5026358;28;20080;-76
2022/07/11 11:00:11;;;;;;;5.15;1.52;;;538.30;256.00;;;;;;5029410;28;20029;-77
2022/07/11 11:03:06;;;;;;;4.72;1.08;;;538.40;256.00;;;;;;5030069;28;21369;-76
2022/07/11 11:05:54;;;;;;;2.50;1.10;;;538.40;281.60;;;;;;5029974;28;20052;-76
2022/07/11 11:08:32;;;;;;;3.25;1.27;;;538.30;307.20;;;;;;5027606;28;20132;-72
2022/07/11 11:11:05;;;;;;;4.60;1.73;;;563.20;332.80;;;;;;5033469;28;20030;-73
2022/07/11 11:13:35;;;;;;;3.35;1.85;;;563.20;332.80;;;;;;5030658;28;20025;-72
2022/07/11 11:16:02;;;;;;;3.58;1.77;;;538.50;281.60;;;;;;5029963;28;20030;-72
2022/07/11 11:18:36;;;;;;;7.43;1.95;;;538.40;281.60;;;;;;5032292;28;20033;-73
2022/07/11 11:21:06;;;;;;;6.72;3.75;;;538.40;256.00;;;;;;5031577;28;20400;-71
2022/07/11 11:23:40;;;;;;;4.38;1.83;;;538.40;256.00;;;;;;5029997;28;20117;-70
2022/07/11 11:26:13;;;;;;;3.33;1.80;;;538.50;204.80;;;;;;5033155;28;20044;-72
2022/07/11 11:29:01;;;;;;;4.20;2.13;;;563.20;256.00;;;;;;5032358;28;20168;-72
2022/07/11 11:31:31;;;;;;;5.20;1.85;;;563.40;256.00;;;;;;5034901;28;20029;-73
2022/07/11 11:33:59;;;;;;;3.95;2.00;;;563.40;281.60;;;;;;5031457;28;20139;-73
2022/07/11 11:36:26;;;;;;;4.25;2.20;;;563.20;332.80;;;;;;5032157;28;20025;-72
2022/07/11 11:38:52;;;;;;;9.07;4.85;;;538.40;332.80;;;;;;5033939;28;20037;-73
2022/07/11 11:41:26;;;;;;;8.45;1.90;;;538.50;332.80;;;;;;5035231;28;20037;-73
2022/07/11 11:43:54;;;;;;;7.50;3.42;;;538.50;307.20;;;;;;5033680;28;20071;-70
2022/07/11 11:46:24;;;;;;;3.92;1.98;;;538.20;307.20;;;;;;5030766;28;20022;-73
2022/07/11 11:48:54;;;;;;;3.55;1.85;;;538.40;307.20;;;;;;5033622;28;20418;-72
2022/07/11 11:51:19;;;;;;;4.13;1.52;;;538.50;281.60;;;;;;5030690;28;20026;-72
2022/07/11 11:53:47;;;;;;;5.70;1.65;;;538.40;307.20;;;;;;5033186;28;20029;-73
2022/07/11 11:56:20;;;;;;;2.17;1.15;;;538.40;307.20;;;;;;5032892;28;20034;-73
2022/07/11 11:58:47;;;;;;;2.25;1.27;;;538.40;307.20;;;;;;5030556;28;20032;-73
2022/07/11 12:01:19;;;;;;;1.92;1.75;;;538.40;307.20;;;;;;5030475;28;20043;-76
2022/07/11 12:03:57;;;;;;;3.90;1.88;;;538.30;332.80;;;;;;5030456;28;20132;-77
2022/07/11 12:06:40;;;;;;;2.38;1.38;;;538.40;332.80;;;;;;5032915;28;20026;-77
2022/07/11 12:09:10;;;;;;;3.27;1.57;;;538.30;332.80;;;;;;5031032;28;20076;-75
2022/07/11 12:11:40;;;;;;;3.53;1.90;;;538.20;307.20;;;;;;5033040;28;20270;-76
2022/07/11 12:14:08;;;;;;;3.20;1.45;;;538.20;307.20;;;;;;5031795;28;20025;-78
2022/07/11 12:16:39;;;;;;;2.75;1.42;;;538.40;307.20;;;;;;5033055;28;20021;-76
2022/07/11 12:19:07;;;;;;;3.20;1.90;;;538.50;256.00;;;;;;5033026;28;20029;-77
2022/07/11 12:21:34;;;;;;;3.97;1.55;;;538.30;281.60;;;;;;5033190;28;20036;-78
2022/07/11 12:24:03;;;;;;;2.70;1.30;;;538.50;256.00;;;;;;5028732;28;20025;-77
2022/07/11 12:26:38;;;;;;;3.95;1.98;;;538.40;281.60;;;;;;5034079;28;20018;-76
2022/07/11 12:29:39;;;;;;;3.63;1.90;;;538.40;307.20;;;;;;5030946;28;20021;-77
2022/07/11 12:32:12;;;;;;;2.67;1.65;;;563.40;332.80;;;;;;5025760;28;20037;-75
2022/07/11 12:34:37;;;;;;;1.80;1.23;;;563.50;307.20;;;;;;5030058;28;20045;-76
2022/07/11 12:37:05;;;;;;;4.72;1.33;;;563.70;307.20;;;;;;5029799;28;20499;-75
2022/07/11 12:39:33;;;;;;;1.83;1.42;;;563.60;307.20;;;;;;5033116;28;20495;-75
2022/07/11 12:42:00;;;;;;;4.57;1.45;;;563.20;307.20;;;;;;5032072;28;20476;-76
2022/07/11 12:47:14;;;;;;;2.88;1.35;;;538.50;332.80;;;;;;5031288;28;20080;-75
2022/07/11 12:49:44;;;;;;;4.72;1.25;;;563.20;332.80;;;;;;5032442;28;20017;-75